sensor_id;sensor_type;location;lat;lon;timestamp;pressure;altitude;pressure_sealevel;temperature;humidity
55757;BME280;41676;44.610;44.078;2023-04-03T00:01:37;99991.84;;;2.26;74.00
55757;BME280;41676;44.610;44.078;2023-04-03T00:06:38;100004.22;;;2.36;74.67
55757;BME280;41676;44.610;44.078;2023-04-03T00:11:39;99954.94;;;2.18;74.75
55757;BME280;41676;44.610;44.078;2023-04-03T00:16:40;100007.13;;;2.54;74.60
55757;BME280;41676;44.610;44.078;2023-04-03T00:21:41;100011.56;;;2.53;74.24
55757;BME280;41676;44.610;44.078;2023-04-03T00:26:41;99945.44;;;2.17;74.77
55757;BME280;41676;44.610;44.078;2023-04-03T00:31:42;99989.06;;;2.39;74.72
55757;BME280;41676;44.610;44.078;2023-04-03T00:36:43;99917.53;;;1.84;74.45
55757;BME280;41676;44.610;44.078;2023-04-03T00:41:43;99926.56;;;1.91;74.44
55757;BME280;41676;44.610;44.078;2023-04-03T00:46:44;99980.78;;;2.23;74.82
55757;BME280;41676;44.610;44.078;2023-04-03T00:51:45;100001.59;;;2.36;74.60
55757;BME280;41676;44.610;44.078;2023-04-03T00:56:46;100014.13;;;2.32;74.73
55757;BME280;41676;44.610;44.078;2023-04-03T01:01:48;100018.19;;;2.25;75.93
55757;BME280;41676;44.610;44.078;2023-04-03T01:06:49;99975.72;;;1.88;75.06
55757;BME280;41676;44.610;44.078;2023-04-03T01:11:49;100017.25;;;2.15;75.05
55757;BME280;41676;44.610;44.078;2023-04-03T01:16:53;100023.78;;;2.20;76.09
55757;BME280;41676;44.610;44.078;2023-04-03T01:22:15;100018.06;;;2.15;76.65
55757;BME280;41676;44.610;44.078;2023-04-03T01:27:18;99996.94;;;1.85;74.76
55757;BME280;41676;44.610;44.078;2023-04-03T01:32:19;99998.63;;;1.86;75.11
55757;BME280;41676;44.610;44.078;2023-04-03T01:37:20;100026.22;;;2.01;75.19
55757;BME280;41676;44.610;44.078;2023-04-03T01:42:21;100007.66;;;1.81;75.48
55757;BME280;41676;44.610;44.078;2023-04-03T01:47:22;100036.47;;;1.93;75.40
55757;BME280;41676;44.610;44.078;2023-04-03T01:52:23;100021.47;;;1.95;75.74
55757;BME280;41676;44.610;44.078;2023-04-03T01:57:25;100047.41;;;1.87;75.41
55757;BME280;41676;44.610;44.078;2023-04-03T02:02:25;100038.84;;;1.85;76.15
55757;BME280;41676;44.610;44.078;2023-04-03T02:07:26;100011.47;;;1.77;76.25
55757;BME280;41676;44.610;44.078;2023-04-03T02:12:27;100052.91;;;1.95;76.02
55757;BME280;41676;44.610;44.078;2023-04-03T02:17:28;100045.53;;;1.89;76.75
55757;BME280;41676;44.610;44.078;2023-04-03T02:22:29;100037.75;;;1.76;76.33
55757;BME280;41676;44.610;44.078;2023-04-03T02:27:30;100040.16;;;1.79;76.63
55757;BME280;41676;44.610;44.078;2023-04-03T02:32:32;100046.59;;;1.75;76.45
55757;BME280;41676;44.610;44.078;2023-04-03T02:37:32;100046.56;;;1.64;76.31
55757;BME280;41676;44.610;44.078;2023-04-03T02:42:33;100050.97;;;1.52;76.60
55757;BME280;41676;44.610;44.078;2023-04-03T02:47:34;99968.31;;;0.91;76.33
55757;BME280;41676;44.610;44.078;2023-04-03T02:52:35;100059.97;;;1.36;76.90
55757;BME280;41676;44.610;44.078;2023-04-03T02:57:36;100060.03;;;1.59;76.77
55757;BME280;41676;44.610;44.078;2023-04-03T03:02:37;99974.56;;;1.24;77.17
55757;BME280;41676;44.610;44.078;2023-04-03T03:07:37;99959.34;;;1.63;76.50
55757;BME280;41676;44.610;44.078;2023-04-03T03:12:38;100082.94;;;3.00;74.89
55757;BME280;41676;44.610;44.078;2023-04-03T03:17:39;100048.94;;;3.19;73.68
55757;BME280;41676;44.610;44.078;2023-04-03T03:22:39;100053.16;;;3.53;72.62
55757;BME280;41676;44.610;44.078;2023-04-03T03:27:40;100080.59;;;3.91;71.86
55757;BME280;41676;44.610;44.078;2023-04-03T03:32:41;100081.22;;;4.04;72.04
55757;BME280;41676;44.610;44.078;2023-04-03T03:37:42;100081.66;;;4.19;72.16
55757;BME280;41676;44.610;44.078;2023-04-03T03:42:42;100093.56;;;4.73;71.83
55757;BME280;41676;44.610;44.078;2023-04-03T03:47:43;100067.22;;;5.31;70.32
55757;BME280;41676;44.610;44.078;2023-04-03T03:52:44;100064.47;;;5.13;70.59
55757;BME280;41676;44.610;44.078;2023-04-03T03:57:45;100078.06;;;5.94;70.17
55757;BME280;41676;44.610;44.078;2023-04-03T04:02:45;100081.34;;;6.79;68.26
55757;BME280;41676;44.610;44.078;2023-04-03T04:07:47;100078.75;;;7.67;67.16
55757;BME280;41676;44.610;44.078;2023-04-03T04:12:47;100077.16;;;8.43;65.47
55757;BME280;41676;44.610;44.078;2023-04-03T04:17:49;100000.91;;;8.55;64.23
55757;BME280;41676;44.610;44.078;2023-04-03T04:22:50;100061.22;;;9.34;62.99
55757;BME280;41676;44.610;44.078;2023-04-03T04:27:51;100008.47;;;9.64;61.79
55757;BME280;41676;44.610;44.078;2023-04-03T04:32:52;100018.22;;;9.72;61.17
55757;BME280;41676;44.610;44.078;2023-04-03T04:37:52;100037.34;;;10.06;60.32
55757;BME280;41676;44.610;44.078;2023-04-03T04:42:53;100053.19;;;10.31;59.09
55757;BME280;41676;44.610;44.078;2023-04-03T04:47:55;100058.44;;;10.47;57.46
55757;BME280;41676;44.610;44.078;2023-04-03T04:52:56;100053.03;;;10.24;57.39
55757;BME280;41676;44.610;44.078;2023-04-03T04:57:57;100023.03;;;9.76;58.12
55757;BME280;41676;44.610;44.078;2023-04-03T05:02:58;100051.34;;;9.84;58.17
55757;BME280;41676;44.610;44.078;2023-04-03T05:07:59;100057.94;;;10.44;57.74
55757;BME280;41676;44.610;44.078;2023-04-03T05:13:00;100024.50;;;10.58;57.06
55757;BME280;41676;44.610;44.078;2023-04-03T05:18:00;100074.28;;;10.87;56.80
55757;BME280;41676;44.610;44.078;2023-04-03T05:23:01;100021.75;;;10.43;57.33
55757;BME280;41676;44.610;44.078;2023-04-03T05:28:02;100024.84;;;10.23;57.77
55757;BME280;41676;44.610;44.078;2023-04-03T05:33:03;100074.56;;;10.69;57.35
55757;BME280;41676;44.610;44.078;2023-04-03T05:38:03;100072.75;;;11.15;56.51
55757;BME280;41676;44.610;44.078;2023-04-03T05:43:04;100021.16;;;11.25;55.32
55757;BME280;41676;44.610;44.078;2023-04-03T05:48:05;100017.66;;;11.77;54.71
55757;BME280;41676;44.610;44.078;2023-04-03T05:53:06;100070.66;;;12.52;53.52
55757;BME280;41676;44.610;44.078;2023-04-03T05:58:06;100089.06;;;12.84;53.07
55757;BME280;41676;44.610;44.078;2023-04-03T06:03:07;100021.13;;;12.79;52.79
55757;BME280;41676;44.610;44.078;2023-04-03T06:08:08;100077.91;;;13.66;51.39
55757;BME280;41676;44.610;44.078;2023-04-03T06:13:09;100013.66;;;13.67;50.47
55757;BME280;41676;44.610;44.078;2023-04-03T06:18:10;100007.44;;;13.95;49.99
55757;BME280;41676;44.610;44.078;2023-04-03T06:23:11;100075.16;;;14.64;50.36
55757;BME280;41676;44.610;44.078;2023-04-03T06:28:12;100090.88;;;14.93;49.66
55757;BME280;41676;44.610;44.078;2023-04-03T06:33:13;100071.53;;;15.31;49.04
55757;BME280;41676;44.610;44.078;2023-04-03T06:38:13;100031.22;;;15.52;48.30
55757;BME280;41676;44.610;44.078;2023-04-03T06:43:14;100031.59;;;15.63;47.09
55757;BME280;41676;44.610;44.078;2023-04-03T06:48:15;100039.50;;;16.23;46.75
55757;BME280;41676;44.610;44.078;2023-04-03T06:53:16;100018.56;;;16.44;45.50
55757;BME280;41676;44.610;44.078;2023-04-03T06:58:16;100001.59;;;16.51;45.20
55757;BME280;41676;44.610;44.078;2023-04-03T07:03:19;100079.09;;;17.36;44.84
55757;BME280;41676;44.610;44.078;2023-04-03T07:08:20;100082.19;;;17.57;44.63
55757;BME280;41676;44.610;44.078;2023-04-03T07:13:20;100006.13;;;17.20;44.09
55757;BME280;41676;44.610;44.078;2023-04-03T07:18:21;100013.44;;;17.56;44.15
55757;BME280;41676;44.610;44.078;2023-04-03T07:23:22;100013.13;;;17.65;43.38
55757;BME280;41676;44.610;44.078;2023-04-03T07:28:24;100061.25;;;18.28;43.13
55757;BME280;41676;44.610;44.078;2023-04-03T07:33:25;99944.13;;;17.84;42.55
55757;BME280;41676;44.610;44.078;2023-04-03T07:38:25;100058.22;;;18.73;41.71
55757;BME280;41676;44.610;44.078;2023-04-03T07:43:26;100025.13;;;18.84;41.24
55757;BME280;41676;44.610;44.078;2023-04-03T07:48:27;100041.28;;;18.96;39.91
55757;BME280;41676;44.610;44.078;2023-04-03T07:53:28;100055.72;;;19.02;39.61
55757;BME280;41676;44.610;44.078;2023-04-03T07:58:29;100036.50;;;18.98;38.49
55757;BME280;41676;44.610;44.078;2023-04-03T08:03:30;99993.66;;;18.85;38.24
55757;BME280;41676;44.610;44.078;2023-04-03T08:08:31;100048.50;;;19.26;38.23
55757;BME280;41676;44.610;44.078;2023-04-03T08:13:33;100053.34;;;19.82;37.50
55757;BME280;41676;44.610;44.078;2023-04-03T08:18:35;100032.03;;;19.81;36.76
55757;BME280;41676;44.610;44.078;2023-04-03T08:23:36;99971.94;;;19.33;37.09
55757;BME280;41676;44.610;44.078;2023-04-03T08:28:38;100055.09;;;20.00;36.48
55757;BME280;41676;44.610;44.078;2023-04-03T08:33:39;100036.31;;;20.05;36.59
55757;BME280;41676;44.610;44.078;2023-04-03T08:38:40;100028.66;;;20.26;36.16
55757;BME280;41676;44.610;44.078;2023-04-03T08:49:27;100034.66;;;20.57;32.61
55757;BME280;41676;44.610;44.078;2023-04-03T08:54:30;100045.78;;;20.89;33.47
55757;BME280;41676;44.610;44.078;2023-04-03T08:59:36;100045.53;;;20.90;32.12
55757;BME280;41676;44.610;44.078;2023-04-03T09:04:38;100030.41;;;20.89;32.43
55757;BME280;41676;44.610;44.078;2023-04-03T09:09:41;100021.56;;;21.11;32.50
55757;BME280;41676;44.610;44.078;2023-04-03T09:19:58;100027.28;;;21.65;31.64
55757;BME280;41676;44.610;44.078;2023-04-03T09:25:22;100042.28;;;21.56;31.10
55757;BME280;41676;44.610;44.078;2023-04-03T09:30:25;100046.16;;;21.60;31.25
55757;BME280;41676;44.610;44.078;2023-04-03T09:35:28;100044.09;;;21.67;30.93
55757;BME280;41676;44.610;44.078;2023-04-03T09:40:35;99910.75;;;21.06;30.36
55757;BME280;41676;44.610;44.078;2023-04-03T09:45:38;100022.25;;;22.13;30.84
55757;BME280;41676;44.610;44.078;2023-04-03T09:51:00;100014.38;;;22.33;29.85
55757;BME280;41676;44.610;44.078;2023-04-03T10:01:31;99982.78;;;22.39;30.09
55757;BME280;41676;44.610;44.078;2023-04-03T10:06:35;99917.81;;;21.89;30.33
55757;BME280;41676;44.610;44.078;2023-04-03T10:11:36;100002.22;;;22.90;30.64
55757;BME280;41676;44.610;44.078;2023-04-03T10:16:54;100004.94;;;22.90;30.71
55757;BME280;41676;44.610;44.078;2023-04-03T10:22:04;99994.50;;;22.71;30.63
55757;BME280;41676;44.610;44.078;2023-04-03T10:27:18;100007.88;;;22.56;30.50
55757;BME280;41676;44.610;44.078;2023-04-03T10:32:44;99989.28;;;22.65;29.87
55757;BME280;41676;44.610;44.078;2023-04-03T10:38:09;99984.97;;;22.96;30.13
55757;BME280;41676;44.610;44.078;2023-04-03T10:54:19;99916.13;;;22.60;29.55
55757;BME280;41676;44.610;44.078;2023-04-03T11:04:19;99917.53;;;22.67;29.14
55757;BME280;41676;44.610;44.078;2023-04-03T11:09:28;99915.06;;;22.61;28.76
55757;BME280;41676;44.610;44.078;2023-04-03T11:14:36;99975.88;;;22.80;28.46
55757;BME280;41676;44.610;44.078;2023-04-03T11:30:20;99954.34;;;22.36;29.31
55757;BME280;41676;44.610;44.078;2023-04-03T11:35:23;99920.34;;;21.74;29.13
55757;BME280;41676;44.610;44.078;2023-04-03T11:40:28;99907.22;;;21.39;29.70
55757;BME280;41676;44.610;44.078;2023-04-03T11:46:23;99939.72;;;21.27;29.20
55757;BME280;41676;44.610;44.078;2023-04-03T11:56:30;99898.81;;;20.85;30.06
55757;BME280;41676;44.610;44.078;2023-04-03T12:01:51;99940.28;;;21.46;29.65
55757;BME280;41676;44.610;44.078;2023-04-03T12:07:11;99835.56;;;20.59;29.81
55757;BME280;41676;44.610;44.078;2023-04-03T12:12:38;99890.81;;;21.07;29.03
55757;BME280;41676;44.610;44.078;2023-04-03T12:17:40;99971.06;;;21.84;29.69
55757;BME280;41676;44.610;44.078;2023-04-03T12:23:35;99972.88;;;22.22;28.44
55757;BME280;41676;44.610;44.078;2023-04-03T12:28:29;99970.47;;;22.04;29.15
55757;BME280;41676;44.610;44.078;2023-04-03T12:54:35;99975.59;;;20.89;31.02
55757;BME280;41676;44.610;44.078;2023-04-03T12:59:36;100005.28;;;21.23;31.17
55757;BME280;41676;44.610;44.078;2023-04-03T13:04:38;100005.84;;;21.58;30.87
55757;BME280;41676;44.610;44.078;2023-04-03T13:09:39;99923.03;;;21.13;30.58
55757;BME280;41676;44.610;44.078;2023-04-03T13:14:40;100001.56;;;21.62;31.01
55757;BME280;41676;44.610;44.078;2023-04-03T13:19:52;99949.88;;;21.37;31.24
55757;BME280;41676;44.610;44.078;2023-04-03T13:24:53;100031.47;;;21.73;31.36
55757;BME280;41676;44.610;44.078;2023-04-03T13:29:57;100034.75;;;21.58;31.69
55757;BME280;41676;44.610;44.078;2023-04-03T13:34:59;100021.09;;;21.14;32.32
55757;BME280;41676;44.610;44.078;2023-04-03T13:40:08;100041.78;;;21.08;32.26
55757;BME280;41676;44.610;44.078;2023-04-03T13:45:19;100053.97;;;20.94;32.17
55757;BME280;41676;44.610;44.078;2023-04-03T13:50:22;99990.19;;;20.19;32.85
55757;BME280;41676;44.610;44.078;2023-04-03T13:55:28;100054.63;;;20.44;33.53
55757;BME280;41676;44.610;44.078;2023-04-03T14:00:38;100078.22;;;20.37;33.90
55757;BME280;41676;44.610;44.078;2023-04-03T14:05:39;100053.19;;;20.01;34.02
55757;BME280;41676;44.610;44.078;2023-04-03T14:10:40;100103.47;;;20.07;34.20
55757;BME280;41676;44.610;44.078;2023-04-03T14:15:43;100100.09;;;19.88;34.72
55757;BME280;41676;44.610;44.078;2023-04-03T14:20:44;100113.47;;;19.71;35.00
55757;BME280;41676;44.610;44.078;2023-04-03T14:25:45;100093.34;;;19.32;35.34
55757;BME280;41676;44.610;44.078;2023-04-03T14:30:49;100119.72;;;19.30;35.86
55757;BME280;41676;44.610;44.078;2023-04-03T14:35:50;100086.75;;;19.04;36.12
55757;BME280;41676;44.610;44.078;2023-04-03T14:40:53;100099.13;;;18.93;36.77
55757;BME280;41676;44.610;44.078;2023-04-03T14:45:54;100109.97;;;18.87;37.26
55757;BME280;41676;44.610;44.078;2023-04-03T14:50:55;100100.13;;;18.62;38.00
55757;BME280;41676;44.610;44.078;2023-04-03T14:55:56;100122.63;;;18.50;38.52
55757;BME280;41676;44.610;44.078;2023-04-03T15:00:56;100112.34;;;18.28;38.99
55757;BME280;41676;44.610;44.078;2023-04-03T15:05:57;100131.16;;;18.28;39.60
55757;BME280;41676;44.610;44.078;2023-04-03T15:10:59;100140.78;;;18.17;40.01
55757;BME280;41676;44.610;44.078;2023-04-03T15:16:01;100135.91;;;18.08;40.31
55757;BME280;41676;44.610;44.078;2023-04-03T15:21:23;100144.06;;;18.01;40.85
55757;BME280;41676;44.610;44.078;2023-04-03T15:26:24;100072.47;;;17.38;41.12
55757;BME280;41676;44.610;44.078;2023-04-03T15:31:26;100133.47;;;17.56;41.08
55757;BME280;41676;44.610;44.078;2023-04-03T15:36:27;100133.91;;;17.53;41.52
55757;BME280;41676;44.610;44.078;2023-04-03T15:41:28;100116.72;;;17.29;41.68
55757;BME280;41676;44.610;44.078;2023-04-03T15:46:29;100170.06;;;17.50;42.01
55757;BME280;41676;44.610;44.078;2023-04-03T15:51:30;100176.13;;;17.39;42.37
55757;BME280;41676;44.610;44.078;2023-04-03T15:56:30;100159.56;;;17.10;43.26
55757;BME280;41676;44.610;44.078;2023-04-03T16:01:32;100186.22;;;17.12;43.88
55757;BME280;41676;44.610;44.078;2023-04-03T16:06:33;100188.34;;;16.97;44.77
55757;BME280;41676;44.610;44.078;2023-04-03T16:11:34;100118.41;;;16.40;45.14
55757;BME280;41676;44.610;44.078;2023-04-03T16:16:36;100166.41;;;16.55;45.03
55757;BME280;41676;44.610;44.078;2023-04-03T16:21:37;100196.94;;;16.60;45.01
55757;BME280;41676;44.610;44.078;2023-04-03T16:26:38;100163.81;;;16.28;44.95
55757;BME280;41676;44.610;44.078;2023-04-03T16:31:39;100187.50;;;16.31;44.90
55757;BME280;41676;44.610;44.078;2023-04-03T16:36:40;100098.31;;;15.64;44.97
55757;BME280;41676;44.610;44.078;2023-04-03T16:41:40;100181.97;;;16.13;45.18
55757;BME280;41676;44.610;44.078;2023-04-03T16:46:41;100059.22;;;15.30;45.88
55757;BME280;41676;44.610;44.078;2023-04-03T16:51:42;100155.59;;;15.70;46.15
55757;BME280;41676;44.610;44.078;2023-04-03T16:56:43;100210.63;;;15.92;46.46
55757;BME280;41676;44.610;44.078;2023-04-03T17:01:44;100230.81;;;15.82;46.85
55757;BME280;41676;44.610;44.078;2023-04-03T17:06:44;100246.06;;;15.81;46.91
55757;BME280;41676;44.610;44.078;2023-04-03T17:11:45;100172.41;;;15.24;47.17
55757;BME280;41676;44.610;44.078;2023-04-03T17:16:46;100255.28;;;15.65;47.40
55757;BME280;41676;44.610;44.078;2023-04-03T17:21:47;100240.03;;;15.52;47.55
55757;BME280;41676;44.610;44.078;2023-04-03T17:26:48;100255.03;;;15.47;47.77
55757;BME280;41676;44.610;44.078;2023-04-03T17:31:48;100212.94;;;15.14;47.81
55757;BME280;41676;44.610;44.078;2023-04-03T17:36:49;100237.28;;;15.26;47.80
55757;BME280;41676;44.610;44.078;2023-04-03T17:41:50;100249.44;;;15.35;47.37
55757;BME280;41676;44.610;44.078;2023-04-03T17:46:51;100241.00;;;15.32;47.19
55757;BME280;41676;44.610;44.078;2023-04-03T17:51:52;100272.53;;;15.49;47.67
55757;BME280;41676;44.610;44.078;2023-04-03T17:56:53;100267.56;;;15.46;48.16
55757;BME280;41676;44.610;44.078;2023-04-03T18:01:54;100080.88;;;14.12;47.96
55757;BME280;41676;44.610;44.078;2023-04-03T18:06:56;100210.63;;;15.04;47.77
55757;BME280;41676;44.610;44.078;2023-04-03T18:11:57;100270.47;;;15.51;47.94
55757;BME280;41676;44.610;44.078;2023-04-03T18:17:00;100282.81;;;15.46;48.28
55757;BME280;41676;44.610;44.078;2023-04-03T18:22:07;100284.25;;;15.35;49.57
55757;BME280;41676;44.610;44.078;2023-04-03T18:27:12;100203.50;;;14.70;50.30
55757;BME280;41676;44.610;44.078;2023-04-03T18:32:15;100294.28;;;15.20;50.22
55757;BME280;41676;44.610;44.078;2023-04-03T18:37:17;100289.28;;;15.10;50.17
55757;BME280;41676;44.610;44.078;2023-04-03T18:42:20;100277.63;;;14.90;51.36
55757;BME280;41676;44.610;44.078;2023-04-03T18:47:22;100269.25;;;14.58;52.08
55757;BME280;41676;44.610;44.078;2023-04-03T18:52:23;100246.97;;;14.23;52.95
55757;BME280;41676;44.610;44.078;2023-04-03T18:57:25;100274.34;;;14.03;54.41
55757;BME280;41676;44.610;44.078;2023-04-03T19:02:25;100297.63;;;13.88;56.22
55757;BME280;41676;44.610;44.078;2023-04-03T19:07:27;100288.00;;;13.51;57.99
55757;BME280;41676;44.610;44.078;2023-04-03T19:12:28;100322.03;;;13.48;59.26
55757;BME280;41676;44.610;44.078;2023-04-03T19:17:29;100314.34;;;13.24;61.26
55757;BME280;41676;44.610;44.078;2023-04-03T19:22:29;100315.16;;;12.95;63.64
55757;BME280;41676;44.610;44.078;2023-04-03T19:27:30;100343.41;;;12.89;64.56
55757;BME280;41676;44.610;44.078;2023-04-03T19:32:31;100337.19;;;12.59;66.45
55757;BME280;41676;44.610;44.078;2023-04-03T19:37:32;100339.66;;;12.46;67.52
55757;BME280;41676;44.610;44.078;2023-04-03T19:42:33;100281.19;;;11.92;68.52
55757;BME280;41676;44.610;44.078;2023-04-03T19:47:36;100350.69;;;12.20;69.25
55757;BME280;41676;44.610;44.078;2023-04-03T19:52:37;100327.94;;;11.94;70.35
55757;BME280;41676;44.610;44.078;2023-04-03T19:57:38;100331.72;;;12.00;70.60
55757;BME280;41676;44.610;44.078;2023-04-03T20:02:39;100353.19;;;12.21;70.02
55757;BME280;41676;44.610;44.078;2023-04-03T20:07:40;100297.88;;;11.85;69.56
55757;BME280;41676;44.610;44.078;2023-04-03T20:12:41;100369.19;;;12.21;69.61
55757;BME280;41676;44.610;44.078;2023-04-03T20:17:42;100368.34;;;12.21;69.26
55757;BME280;41676;44.610;44.078;2023-04-03T20:22:43;100356.25;;;12.10;69.58
55757;BME280;41676;44.610;44.078;2023-04-03T20:27:44;100344.13;;;12.07;69.82
55757;BME280;41676;44.610;44.078;2023-04-03T20:32:45;100293.63;;;11.68;70.03
55757;BME280;41676;44.610;44.078;2023-04-03T20:37:45;100347.56;;;11.93;70.90
55757;BME280;41676;44.610;44.078;2023-04-03T20:42:46;100351.47;;;11.74;71.16
55757;BME280;41676;44.610;44.078;2023-04-03T20:47:48;100352.91;;;11.54;71.58
55757;BME280;41676;44.610;44.078;2023-04-03T20:52:51;100377.56;;;11.39;71.68
55757;BME280;41676;44.610;44.078;2023-04-03T20:57:51;100370.16;;;11.18;72.27
55757;BME280;41676;44.610;44.078;2023-04-03T21:02:57;100313.69;;;10.61;72.23
55757;BME280;41676;44.610;44.078;2023-04-03T21:19:20;100305.66;;;9.63;76.37
55757;BME280;41676;44.610;44.078;2023-04-03T21:24:21;100375.72;;;9.94;75.29
55757;BME280;41676;44.610;44.078;2023-04-03T21:29:23;100405.41;;;9.98;74.89
55757;BME280;41676;44.610;44.078;2023-04-03T21:34:28;100397.94;;;9.93;77.64
55757;BME280;41676;44.610;44.078;2023-04-03T21:39:29;100320.34;;;9.32;75.55
55757;BME280;41676;44.610;44.078;2023-04-03T21:44:30;100363.34;;;9.52;76.20
55757;BME280;41676;44.610;44.078;2023-04-03T21:49:31;100368.22;;;9.31;76.66
55757;BME280;41676;44.610;44.078;2023-04-03T21:54:32;100340.22;;;8.94;77.02
55757;BME280;41676;44.610;44.078;2023-04-03T21:59:33;100364.41;;;8.99;76.50
55757;BME280;41676;44.610;44.078;2023-04-03T22:04:34;100393.63;;;9.07;76.53
55757;BME280;41676;44.610;44.078;2023-04-03T22:09:35;100388.22;;;8.91;76.54
55757;BME280;41676;44.610;44.078;2023-04-03T22:14:36;100362.88;;;8.62;76.57
55757;BME280;41676;44.610;44.078;2023-04-03T22:19:37;100394.09;;;8.77;76.85
55757;BME280;41676;44.610;44.078;2023-04-03T22:24:38;100384.06;;;8.62;77.35
55757;BME280;41676;44.610;44.078;2023-04-03T22:29:39;100407.00;;;8.54;78.22
55757;BME280;41676;44.610;44.078;2023-04-03T22:34:40;100290.13;;;7.69;78.32
55757;BME280;41676;44.610;44.078;2023-04-03T22:39:41;100314.06;;;7.85;78.09
55757;BME280;41676;44.610;44.078;2023-04-03T22:44:42;100381.03;;;8.04;78.06
55757;BME280;41676;44.610;44.078;2023-04-03T22:49:42;100380.72;;;8.07;78.09
55757;BME280;41676;44.610;44.078;2023-04-03T22:54:43;100421.50;;;8.14;77.19
55757;BME280;41676;44.610;44.078;2023-04-03T22:59:44;100379.56;;;7.73;77.81
55757;BME280;41676;44.610;44.078;2023-04-03T23:04:45;100381.97;;;7.67;78.42
55757;BME280;41676;44.610;44.078;2023-04-03T23:09:45;100390.75;;;7.67;78.53
55757;BME280;41676;44.610;44.078;2023-04-03T23:14:46;100436.25;;;7.89;78.64
55757;BME280;41676;44.610;44.078;2023-04-03T23:19:47;100449.50;;;7.89;78.93
55757;BME280;41676;44.610;44.078;2023-04-03T23:24:48;100442.69;;;7.86;79.38
55757;BME280;41676;44.610;44.078;2023-04-03T23:29:49;100404.06;;;7.48;79.49
55757;BME280;41676;44.610;44.078;2023-04-03T23:34:50;100455.38;;;7.55;78.62
55757;BME280;41676;44.610;44.078;2023-04-03T23:39:50;100361.75;;;6.83;79.42
55757;BME280;41676;44.610;44.078;2023-04-03T23:44:51;100435.84;;;7.28;80.06
55757;BME280;41676;44.610;44.078;2023-04-03T23:49:53;100387.44;;;6.91;80.07
55757;BME280;41676;44.610;44.078;2023-04-03T23:54:53;100395.94;;;6.94;79.72
55757;BME280;41676;44.610;44.078;2023-04-03T23:59:54;100388.75;;;6.77;79.47
